This is the latest recevied weather packets stored in our database for station/object OK3MS-5. If no packets are shown the sender has not sent any weather packets the latest 10 day(s).
| Time | Temp. | Humidity | Pressure | Rain* | Wind** | Luminosity | Snow |
|---|---|---|---|---|---|---|---|
| 1777437604 | 2.22° C | 55% | 1024.7 hPa | 0 mm | - | 29 W/m² | - |
| 1777437309 | 1.67° C | 59% | 1024.9 hPa | 0 mm | - | 27 W/m² | - |
| 1777437003 | 1.11° C | 60% | 1024.9 hPa | 0 mm | - | 24 W/m² | - |
| 1777436704 | 1.11° C | 63% | 1025 hPa | 0 mm | - | 22 W/m² | - |
| 1777436405 | 1.11° C | 68% | 1024.9 hPa | 0 mm | - | 19 W/m² | - |
| 1777436102 | 1.11° C | 64% | 1024.9 hPa | 0 mm | - | 16 W/m² | - |
| 1777435802 | 0.56° C | 71% | 1024.9 hPa | 0 mm | - | 14 W/m² | - |
| 1777435504 | 0.56° C | 66% | 1024.9 hPa | 0 mm | - | 11 W/m² | - |
| 1777435202 | 0.56° C | 65% | 1024.9 hPa | 0 mm | - | 8 W/m² | - |
| 1777434903 | 0.56° C | 67% | 1024.8 hPa | 0 mm | - | 6 W/m² | - |
| 1777434604 | 0.56° C | 69% | 1024.7 hPa | 0 mm | - | 4 W/m² | - |
| 1777434303 | 1.11° C | 66% | 1024.5 hPa | 0 mm | - | 3 W/m² | - |
| 1777434007 | 1.11° C | 63% | 1024.5 hPa | 0 mm | - | 2 W/m² | - |
| 1777433705 | 1.11° C | 62% | 1024.4 hPa | 0 mm | - | 1 W/m² | - |
| 1777433404 | 1.11° C | 66% | 1024.5 hPa | 0 mm | - | 1 W/m² | - |
| 1777433104 | 1.11° C | 66% | 1024.5 hPa | 0 mm | - | 0 W/m² | - |
| 1777432810 | 1.11° C | 63% | 1024.5 hPa | 0 mm | - | 0 W/m² | - |
| 1777432503 | 1.11° C | 66% | 1024.5 hPa | 0 mm | - | 0 W/m² | - |
| 1777432203 | 1.11° C | 68% | 1024.5 hPa | 0 mm | - | 0 W/m² | - |
| 1777431904 | 1.11° C | 63% | 1024.5 hPa | 0 mm | - | 0 W/m² | - |
| 1777431605 | 1.11° C | 65% | 1024.4 hPa | 0 mm | - | 0 W/m² | - |
| 1777431303 | 1.11° C | 68% | 1024.5 hPa | 0 mm | - | 0 W/m² | - |
| 1777431002 | 1.67° C | 68% | 1024.3 hPa | 0 mm | - | 0 W/m² | - |
| 1777430703 | 1.67° C | 66% | 1024.3 hPa | 0 mm | - | 0 W/m² | - |
| 1777430405 | 1.67° C | 66% | 1024.3 hPa | 0 mm | - | 0 W/m² | - |
* Rain latest hour (hover to see other rain measurements)
** Current wind speed in m/s (hover to see current wind gust speed)